Time;durP1;ratioP1;P1;durP2;ratioP2;P2;SDS_P1;SDS_P2;PMS_P1;PMS_P2;Temp;Humidity;BMP_temperature;BMP_pressure;BME280_temperature;BME280_humidity;BME280_pressure;Samples;Min_cycle;Max_cycle;Signal;HPM_P1;HPM_P2
2021/12/18 00:01:06;;;;;;;;;41.50;34.75;;;;;7.12;74.00;103268.97;4957411;28;45466;-55
2021/12/18 00:03:34;;;;;;;;;37.00;27.50;;;;;7.11;74.70;103278.69;4957456;28;45348;-55
2021/12/18 00:06:01;;;;;;;;;42.75;34.25;;;;;7.08;74.41;103254.13;4956692;28;46356;-56
2021/12/18 00:08:26;;;;;;;;;39.50;32.25;;;;;7.10;74.27;103266.41;4956690;28;45494;-54
2021/12/18 00:10:53;;;;;;;;;35.75;26.25;;;;;6.98;74.63;103246.56;4956792;28;45374;-55
2021/12/18 00:13:19;;;;;;;;;43.00;37.00;;;;;7.08;74.30;103260.31;5001704;28;45506;-56
2021/12/18 00:15:45;;;;;;;;;37.25;27.50;;;;;7.07;74.60;103249.78;5037628;28;46308;-57
2021/12/18 00:18:10;;;;;;;;;44.00;34.00;;;;;7.04;74.06;103242.84;5020458;28;45322;-57
2021/12/18 00:20:37;;;;;;;;;43.50;32.00;;;;;7.03;73.96;103251.69;5038134;28;45215;-55
2021/12/18 00:23:04;;;;;;;;;47.50;35.75;;;;;6.92;74.09;103227.47;5038211;28;45226;-56
2021/12/18 00:25:29;;;;;;;;;36.25;31.50;;;;;7.02;74.17;103246.47;5020249;28;46494;-59
2021/12/18 00:27:54;;;;;;;;;45.00;35.25;;;;;6.90;74.00;103224.84;5037962;28;45374;-54
2021/12/18 00:30:23;;;;;;;;;42.25;31.25;;;;;6.96;74.54;103237.00;5038121;28;45535;-58
2021/12/18 00:32:49;;;;;;;;;46.25;36.25;;;;;7.01;74.52;103248.25;5038252;28;45339;-58
2021/12/18 00:35:17;;;;;;;;;40.50;31.50;;;;;6.90;74.62;103229.28;5037752;28;45451;-56
2021/12/18 00:37:44;;;;;;;;;31.75;27.75;;;;;7.00;73.90;103251.84;5003573;28;45312;-55
2021/12/18 00:40:18;;;;;;;;;39.75;31.50;;;;;6.99;73.80;103244.78;5037550;28;45414;-55
2021/12/18 00:42:51;;;;;;;;;48.75;32.50;;;;;6.93;73.62;103239.75;5037131;28;45287;-58
2021/12/18 00:45:21;;;;;;;;;38.75;29.75;;;;;6.83;74.04;103228.69;5037284;28;45260;-59
2021/12/18 00:47:47;;;;;;;;;43.00;31.25;;;;;6.66;74.22;103192.34;5037312;28;45471;-58
2021/12/18 00:50:36;;;;;;;;;39.25;29.50;;;;;6.94;73.88;103233.53;5037087;28;45381;-54
2021/12/18 00:53:01;;;;;;;;;35.25;33.50;;;;;6.94;73.96;103234.41;5036560;28;45667;-55
2021/12/18 00:55:27;;;;;;;;;36.00;24.50;;;;;6.94;73.93;103233.53;5035584;28;47316;-56
2021/12/18 00:57:53;;;;;;;;;33.75;28.75;;;;;6.83;73.74;103211.97;5036920;28;45258;-55
2021/12/18 01:00:23;;;;;;;;;33.25;28.75;;;;;6.80;73.61;103212.06;5037193;28;45302;-57
2021/12/18 01:02:52;;;;;;;;;33.75;22.75;;;;;6.89;73.83;103232.88;5036865;28;45440;-58
2021/12/18 01:05:19;;;;;;;;;41.00;29.00;;;;;6.77;74.12;103217.47;5036779;28;45458;-59
2021/12/18 01:07:45;;;;;;;;;33.25;28.00;;;;;6.78;73.85;103220.06;5035683;28;45338;-55
2021/12/18 01:12:58;;;;;;;;;23.25;18.75;;;;;6.78;74.15;103238.56;5037437;28;45794;-57
2021/12/18 01:15:30;;;;;;;;;28.75;23.00;;;;;6.84;74.02;103234.84;5035877;28;45501;-56
2021/12/18 01:23:25;;;;;;;;;33.25;28.00;;;;;6.69;73.81;103238.94;5035982;28;45173;-57
2021/12/18 01:25:52;;;;;;;;;40.50;27.75;;;;;6.67;73.87;103240.81;5036384;28;46685;-58
2021/12/18 01:28:18;;;;;;;;;34.25;26.75;;;;;6.73;73.76;103251.97;5036250;28;45418;-55
2021/12/18 01:30:44;;;;;;;;;29.25;22.50;;;;;6.66;73.79;103234.66;5036543;28;45394;-55
2021/12/18 01:33:09;;;;;;;;;30.50;23.75;;;;;6.70;73.93;103244.19;5036498;28;45444;-56
2021/12/18 01:35:35;;;;;;;;;29.25;20.50;;;;;6.62;74.24;103234.84;5036137;28;45435;-56
2021/12/18 01:38:01;;;;;;;;;37.00;25.50;;;;;6.68;73.76;103253.09;5035893;28;45393;-57
2021/12/18 01:40:27;;;;;;;;;24.00;18.50;;;;;6.65;73.70;103256.72;5036244;28;45252;-56
2021/12/18 01:53:32;;;;;;;;;32.00;24.00;;;;;6.58;73.81;103251.75;5036276;28;45313;-60
2021/12/18 01:55:58;;;;;;;;;30.00;25.25;;;;;6.57;73.46;103257.94;5035767;28;45266;-56
2021/12/18 01:58:24;;;;;;;;;21.25;20.00;;;;;6.55;73.79;103258.00;5036077;28;45311;-56
2021/12/18 02:00:52;;;;;;;;;27.50;22.50;;;;;6.51;73.73;103261.69;5036193;28;45378;-55
2021/12/18 02:03:19;;;;;;;;;26.75;22.50;;;;;6.50;73.89;103250.25;5036149;28;45282;-55
2021/12/18 02:05:48;;;;;;;;;33.25;29.00;;;;;6.45;73.96;103246.06;5035689;28;46978;-55
2021/12/18 02:08:18;;;;;;;;;31.00;20.50;;;;;6.46;73.67;103240.72;5035597;28;45491;-54
2021/12/18 02:10:51;;;;;;;;;28.50;23.75;;;;;6.44;73.64;103249.59;5035825;28;45329;-56
2021/12/18 02:21:17;;;;;;;;;26.50;22.50;;;;;6.38;73.68;103258.66;5035770;28;45338;-56
2021/12/18 02:23:44;;;;;;;;;25.25;23.75;;;;;6.37;73.93;103261.34;5035625;28;45545;-56
2021/12/18 02:26:11;;;;;;;;;24.50;20.00;;;;;6.33;74.13;103257.09;5035455;28;45372;-55
2021/12/18 02:28:36;;;;;;;;;29.25;23.25;;;;;6.34;73.45;103257.03;5035554;28;45401;-57
2021/12/18 02:31:03;;;;;;;;;30.50;24.25;;;;;6.33;73.33;103254.47;5035488;28;45298;-57
2021/12/18 02:33:29;;;;;;;;;29.25;23.25;;;;;6.30;73.95;103259.84;5035798;28;45369;-56
2021/12/18 02:35:58;;;;;;;;;31.00;27.50;;;;;6.27;73.90;103255.53;5035710;28;46161;-56
2021/12/18 02:38:33;;;;;;;;;32.00;21.75;;;;;6.27;73.93;103259.97;5038599;28;45282;-56
2021/12/18 02:41:11;;;;;;;;;35.00;22.75;;;;;6.25;74.03;103255.59;5038994;28;45420;-55
2021/12/18 02:43:38;;;;;;;;;28.75;28.00;;;;;6.23;73.87;103252.13;5039010;28;45388;-55
2021/12/18 02:46:09;;;;;;;;;31.50;26.75;;;;;6.22;74.24;103254.84;5038645;28;46010;-56
2021/12/18 02:48:40;;;;;;;;;32.75;24.00;;;;;6.21;74.13;103251.34;5038571;28;45273;-55
2021/12/18 02:51:11;;;;;;;;;29.75;24.50;;;;;6.16;73.96;103255.94;5038995;28;45255;-56
2021/12/18 02:53:41;;;;;;;;;29.00;22.25;;;;;6.16;74.05;103250.66;5038601;28;45349;-55
2021/12/18 02:56:12;;;;;;;;;38.50;25.00;;;;;6.13;74.25;103250.75;5038325;28;46397;-55
2021/12/18 02:58:42;;;;;;;;;29.00;25.00;;;;;6.13;74.57;103255.19;5038530;28;45327;-56
2021/12/18 03:01:11;;;;;;;;;25.25;23.25;;;;;6.11;74.37;103263.19;5038573;28;45301;-55
2021/12/18 03:03:40;;;;;;;;;33.75;29.25;;;;;6.07;74.21;103245.72;5038872;28;45412;-56
2021/12/18 03:27:29;;;;;;;;;33.50;26.50;;;;;6.18;74.06;103258.53;4937305;28;45380;-55
2021/12/18 03:29:57;;;;;;;;;39.00;28.75;;;;;6.18;73.96;103248.81;4937303;28;45458;-56
2021/12/18 03:32:23;;;;;;;;;36.00;30.75;;;;;6.27;73.68;103255.53;4937476;28;45533;-55
2021/12/18 03:34:51;;;;;;;;;27.00;22.75;;;;;6.31;73.58;103258.94;4937802;28;45405;-57
2021/12/18 03:37:16;;;;;;;;;38.50;27.50;;;;;6.32;73.57;103260.66;4937382;28;46060;-56
2021/12/18 03:39:42;;;;;;;;;37.50;31.00;;;;;6.32;73.53;103258.00;4937335;28;45333;-56
2021/12/18 03:42:08;;;;;;;;;31.25;22.50;;;;;6.33;73.48;103259.75;4937442;28;45371;-58
2021/12/18 03:44:34;;;;;;;;;29.00;18.25;;;;;6.37;74.01;103254.28;4937533;28;45501;-55
2021/12/18 03:47:00;;;;;;;;;32.25;27.25;;;;;6.38;73.43;103256.00;4936996;28;45346;-57
2021/12/18 03:49:26;;;;;;;;;38.00;29.00;;;;;6.36;73.63;103244.63;4937088;28;45363;-55
2021/12/18 03:51:51;;;;;;;;;34.25;25.75;;;;;6.37;73.83;103241.06;4937529;28;45377;-54
2021/12/18 03:54:16;;;;;;;;;36.50;28.75;;;;;6.39;74.27;103241.00;4937107;28;45383;-56
2021/12/18 03:56:42;;;;;;;;;35.25;27.75;;;;;6.42;74.11;103232.97;4937210;28;45940;-56
2021/12/18 03:59:08;;;;;;;;;32.25;27.25;;;;;6.44;73.91;103239.03;4937171;28;45457;-56
2021/12/18 04:01:33;;;;;;;;;32.25;19.50;;;;;6.42;73.69;103230.31;4937161;28;45436;-56
2021/12/18 04:03:59;;;;;;;;;30.50;24.75;;;;;6.42;74.17;103239.09;4962462;28;45319;-55
2021/12/18 04:06:24;;;;;;;;;38.00;24.75;;;;;6.41;74.40;103239.16;5037361;28;45929;-56
2021/12/18 04:08:50;;;;;;;;;37.25;31.50;;;;;6.41;74.38;103242.69;5037420;28;45421;-56
2021/12/18 04:11:15;;;;;;;;;31.75;27.75;;;;;6.44;74.43;103236.38;5037635;28;45338;-56
2021/12/18 04:13:44;;;;;;;;;43.00;28.00;;;;;6.38;74.32;103226.91;5037796;28;45269;-57
2021/12/18 04:16:13;;;;;;;;;29.25;26.25;;;;;6.45;74.11;103236.34;5037148;28;45463;-56
2021/12/18 04:18:38;;;;;;;;;33.00;23.75;;;;;6.46;73.94;103237.22;5037327;28;45392;-57
2021/12/18 04:21:04;;;;;;;;;47.00;30.50;;;;;6.47;74.22;103233.63;5037401;28;45340;-56
2021/12/18 04:23:29;;;;;;;;;34.25;23.25;;;;;6.45;74.35;103220.47;5037601;28;45363;-58
2021/12/18 04:25:56;;;;;;;;;41.50;31.75;;;;;6.55;74.49;103236.84;5037019;28;45354;-56
2021/12/18 04:28:22;;;;;;;;;35.25;26.25;;;;;6.55;73.90;103228.06;5037169;28;45345;-55
2021/12/18 04:30:47;;;;;;;;;23.75;20.25;;;;;6.56;74.07;103225.34;5037317;28;45263;-56
2021/12/18 04:33:13;;;;;;;;;31.00;27.50;;;;;6.56;74.71;103232.41;5037389;28;45243;-57
2021/12/18 04:35:38;;;;;;;;;30.75;21.75;;;;;6.56;74.34;103238.56;5036979;28;46107;-57
2021/12/18 04:38:03;;;;;;;;;36.75;26.75;;;;;6.58;73.97;103238.53;5037000;28;45354;-55
2021/12/18 04:40:29;;;;;;;;;39.00;32.50;;;;;6.59;74.21;103238.44;5037115;28;45330;-55
2021/12/18 04:42:55;;;;;;;;;34.50;25.00;;;;;6.61;74.25;103236.59;5037551;28;45234;-57
2021/12/18 04:45:22;;;;;;;;;35.25;27.00;;;;;6.47;74.00;103215.13;5036879;28;45418;-57
2021/12/18 04:47:47;;;;;;;;;36.75;26.50;;;;;6.47;74.23;103223.06;5036778;28;45368;-56
2021/12/18 04:50:12;;;;;;;;;38.50;30.75;;;;;6.57;74.35;103239.41;5036636;28;45364;-56
2021/12/18 04:52:38;;;;;;;;;37.00;29.75;;;;;6.61;74.59;103247.16;5036968;28;45458;-57
2021/12/18 04:55:05;;;;;;;;;31.50;26.75;;;;;6.64;74.75;103238.28;5036540;28;47206;-55
2021/12/18 04:57:30;;;;;;;;;34.25;23.75;;;;;6.63;74.18;103240.06;5035798;28;45255;-55
2021/12/18 04:59:56;;;;;;;;;38.00;27.25;;;;;6.66;74.71;103241.72;5035757;28;45486;-55
2021/12/18 05:02:32;;;;;;;;;37.75;30.00;;;;;6.60;74.29;103232.22;5037090;28;45184;-57
2021/12/18 05:04:57;;;;;;;;;36.50;28.25;;;;;6.70;74.69;103249.47;5036682;28;46171;-55
2021/12/18 05:07:23;;;;;;;;;39.50;27.00;;;;;6.72;74.99;103249.41;5036856;28;45362;-56
2021/12/18 05:09:48;;;;;;;;;34.75;24.75;;;;;6.72;74.88;103250.28;5036798;28;45365;-57
2021/12/18 05:12:13;;;;;;;;;36.50;24.75;;;;;6.74;74.24;103252.84;5036731;28;45409;-56
2021/12/18 05:14:39;;;;;;;;;43.00;27.25;;;;;6.80;74.88;103249.13;5036366;28;46112;-56
2021/12/18 05:17:04;;;;;;;;;35.75;28.00;;;;;6.83;73.91;103241.06;5036409;28;45257;-55
2021/12/18 05:19:30;;;;;;;;;37.75;32.50;;;;;6.86;74.46;103252.34;5037377;28;45385;-58
2021/12/18 05:21:55;;;;;;;;;38.25;22.75;;;;;6.86;73.75;103252.34;5037421;28;45239;-55
2021/12/18 05:24:20;;;;;;;;;40.50;29.25;;;;;6.87;73.98;103262.03;5036862;28;45287;-59
2021/12/18 05:26:46;;;;;;;;;40.50;29.00;;;;;6.89;74.30;103254.03;5037097;28;45378;-58
2021/12/18 05:29:11;;;;;;;;;30.00;27.00;;;;;6.91;74.08;103255.72;5037255;28;45409;-57
2021/12/18 05:31:37;;;;;;;;;29.50;28.00;;;;;6.92;73.72;103253.91;5037402;28;45424;-55
2021/12/18 05:34:04;;;;;;;;;41.75;33.50;;;;;6.89;73.61;103254.88;5036811;28;45946;-57
2021/12/18 05:36:51;;;;;;;;;35.50;29.50;;;;;6.81;74.14;103237.59;5036663;28;45392;-57
2021/12/18 05:39:17;;;;;;;;;36.50;24.50;;;;;6.88;73.84;103260.25;5036841;28;45315;-57
2021/12/18 05:41:42;;;;;;;;;31.25;26.00;;;;;6.89;73.99;103261.97;5036919;28;45559;-57
2021/12/18 05:44:08;;;;;;;;;35.75;25.25;;;;;6.84;73.39;103254.22;5036606;28;46108;-56
2021/12/18 05:46:34;;;;;;;;;32.50;25.25;;;;;6.83;73.82;103252.50;5036702;28;45227;-56
2021/12/18 05:48:59;;;;;;;;;35.25;26.75;;;;;6.82;74.05;103260.47;5036890;28;45182;-56
2021/12/18 05:51:25;;;;;;;;;30.25;24.25;;;;;6.80;73.37;103249.97;5036865;28;45487;-56
2021/12/18 05:53:50;;;;;;;;;37.75;30.50;;;;;6.78;73.72;103251.81;5036512;28;46122;-56
2021/12/18 05:56:16;;;;;;;;;25.75;25.25;;;;;6.78;74.12;103257.09;5036335;28;45291;-55
2021/12/18 05:58:43;;;;;;;;;41.00;29.00;;;;;6.68;74.45;103245.16;5036550;28;45337;-55
2021/12/18 06:01:08;;;;;;;;;26.25;26.00;;;;;6.61;73.62;103226.00;5036809;28;45568;-56
2021/12/18 06:03:33;;;;;;;;;36.50;26.75;;;;;6.63;73.96;103233.91;5036487;28;45957;-57
2021/12/18 06:06:00;;;;;;;;;33.25;26.75;;;;;6.63;73.83;103236.56;5036488;28;45439;-56
2021/12/18 06:08:26;;;;;;;;;32.75;29.25;;;;;6.61;74.61;103246.31;5036524;28;45370;-55
2021/12/18 06:10:51;;;;;;;;;30.50;26.75;;;;;6.58;73.79;103236.75;5038488;28;45818;-54
2021/12/18 06:13:17;;;;;;;;;33.00;19.00;;;;;6.55;74.10;103241.28;5039590;28;45363;-56
2021/12/18 06:15:42;;;;;;;;;29.75;26.75;;;;;6.52;74.20;103242.25;5039584;28;45304;-56
2021/12/18 06:18:08;;;;;;;;;32.25;26.00;;;;;6.50;74.35;103242.31;5039982;28;45365;-55
2021/12/18 06:20:33;;;;;;;;;27.25;25.50;;;;;6.52;74.40;103244.03;5038737;28;45463;-56
2021/12/18 06:22:59;;;;;;;;;30.25;24.75;;;;;6.48;74.45;103238.00;5039921;28;45235;-56
2021/12/18 06:25:25;;;;;;;;;27.50;23.50;;;;;6.41;74.31;103228.59;5039720;28;45180;-54
2021/12/18 06:27:50;;;;;;;;;37.50;27.75;;;;;6.43;74.52;103237.31;5039992;28;45230;-55
2021/12/18 06:30:18;;;;;;;;;25.50;23.25;;;;;6.42;74.62;103232.97;5040221;28;45461;-56
2021/12/18 06:32:43;;;;;;;;;40.75;29.25;;;;;6.36;74.86;103230.53;5039524;28;45516;-56
2021/12/18 06:35:09;;;;;;;;;43.25;26.00;;;;;6.36;75.35;103244.63;5039517;28;45318;-56
2021/12/18 06:37:35;;;;;;;;;35.50;20.75;;;;;6.37;74.98;103240.22;5039857;28;45293;-55
2021/12/18 06:40:00;;;;;;;;;26.25;25.75;;;;;6.36;75.11;103241.09;5039583;28;45400;-56
2021/12/18 06:42:26;;;;;;;;;43.50;31.00;;;;;6.33;75.53;103242.09;5039459;28;46051;-56
2021/12/18 06:44:51;;;;;;;;;30.75;26.00;;;;;6.33;75.34;103246.53;5039214;28;45446;-58
2021/12/18 06:47:17;;;;;;;;;39.25;27.00;;;;;6.31;75.27;103243.91;5039683;28;45204;-54
2021/12/18 06:49:42;;;;;;;;;33.25;28.00;;;;;6.28;75.29;103249.34;5039704;28;45437;-57
2021/12/18 06:52:08;;;;;;;;;39.75;28.75;;;;;6.23;75.79;103240.72;5039337;28;45813;-55
2021/12/18 06:54:33;;;;;;;;;35.25;29.00;;;;;6.25;75.40;103246.81;5021572;28;45372;-56
2021/12/18 06:56:59;;;;;;;;;37.75;26.00;;;;;6.21;75.42;103242.56;5039396;28;45377;-56
2021/12/18 06:59:25;;;;;;;;;38.25;31.00;;;;;6.23;75.65;103246.00;5039619;28;45502;-54
2021/12/18 07:01:52;;;;;;;;;42.25;28.50;;;;;6.18;75.94;103240.88;5039176;28;46298;-56
2021/12/18 07:04:23;;;;;;;;;38.00;27.50;;;;;6.22;75.47;103249.56;5039160;28;45333;-54
2021/12/18 07:06:48;;;;;;;;;41.00;30.00;;;;;6.19;75.79;103249.66;5039104;28;45429;-54
2021/12/18 07:09:14;;;;;;;;;39.00;34.25;;;;;6.18;75.86;103256.75;5021588;28;45168;-54
2021/12/18 07:11:40;;;;;;;;;29.25;25.00;;;;;6.18;75.73;103254.09;5038996;28;46229;-56
2021/12/18 07:14:05;;;;;;;;;32.25;27.50;;;;;6.18;75.68;103259.38;5038899;28;45305;-55
2021/12/18 07:16:31;;;;;;;;;37.75;29.25;;;;;6.16;75.61;103249.81;5038665;28;45412;-54
2021/12/18 07:18:56;;;;;;;;;41.25;30.25;;;;;6.17;75.46;103255.03;5039304;28;45408;-55
2021/12/18 07:21:22;;;;;;;;;33.50;27.50;;;;;6.17;75.49;103254.16;5037976;28;46312;-56
2021/12/18 07:23:48;;;;;;;;;36.25;29.75;;;;;6.17;75.60;103256.81;5021087;28;45345;-55
2021/12/18 07:26:13;;;;;;;;;37.25;32.00;;;;;6.07;76.13;103240.44;5038631;28;45402;-54
2021/12/18 07:28:40;;;;;;;;;35.25;27.50;;;;;6.15;75.54;103258.63;5038833;28;45306;-55
2021/12/18 07:31:05;;;;;;;;;35.75;29.50;;;;;6.08;75.78;103251.88;5038851;28;46162;-54
2021/12/18 07:33:31;;;;;;;;;32.75;27.25;;;;;6.13;75.66;103256.06;5038466;28;45482;-58
2021/12/18 07:35:56;;;;;;;;;33.50;29.00;;;;;6.10;75.58;103260.59;5038844;28;45405;-55
2021/12/18 07:38:22;;;;;;;;;33.00;27.00;;;;;6.02;75.71;103252.06;5039008;28;45192;-55
2021/12/18 07:40:47;;;;;;;;;35.00;29.00;;;;;6.15;75.45;103271.84;5038150;28;46170;-56
2021/12/18 07:43:13;;;;;;;;;37.75;26.00;;;;;6.12;75.69;103264.03;5038686;28;45374;-56
2021/12/18 07:45:38;;;;;;;;;41.00;30.25;;;;;6.17;75.81;103273.53;5038525;28;45357;-56
2021/12/18 07:48:04;;;;;;;;;36.75;28.25;;;;;6.17;75.81;103278.81;5038832;28;45504;-56
2021/12/18 07:50:30;;;;;;;;;34.00;24.25;;;;;6.17;75.19;103272.66;5038355;28;45849;-55
2021/12/18 07:52:55;;;;;;;;;34.25;29.00;;;;;6.18;75.23;103277.88;5038253;28;45322;-55
2021/12/18 07:55:21;;;;;;;;;38.25;26.00;;;;;6.20;75.53;103281.34;5038290;28;45245;-56
2021/12/18 07:57:47;;;;;;;;;33.25;28.75;;;;;6.11;75.44;103263.19;5038395;28;45439;-55
2021/12/18 08:00:14;;;;;;;;;34.25;26.00;;;;;6.21;75.21;103277.78;5038170;28;46310;-56
2021/12/18 08:02:40;;;;;;;;;36.25;22.50;;;;;6.22;75.16;103276.00;5037400;28;45331;-57
2021/12/18 08:05:06;;;;;;;;;38.50;28.00;;;;;6.15;75.19;103254.22;5038191;28;45330;-54
2021/12/18 08:07:32;;;;;;;;;38.25;30.25;;;;;6.25;74.78;103275.88;5038325;28;45667;-56
2021/12/18 08:09:57;;;;;;;;;34.00;24.00;;;;;6.20;74.61;103262.84;5037985;28;45294;-56
2021/12/18 08:12:23;;;;;;;;;40.75;29.75;;;;;6.29;74.53;103274.84;5037982;28;45421;-55
2021/12/18 08:14:48;;;;;;;;;40.25;32.75;;;;;6.32;74.80;103274.75;5037898;28;45370;-56
2021/12/18 08:17:14;;;;;;;;;32.25;23.25;;;;;6.31;74.69;103267.72;5038383;28;45420;-56
2021/12/18 08:19:40;;;;;;;;;33.00;22.25;;;;;6.33;74.41;103267.69;5038042;28;45287;-55
2021/12/18 08:22:06;;;;;;;;;30.50;25.00;;;;;6.34;74.39;103264.09;5037973;28;45361;-55
2021/12/18 08:24:31;;;;;;;;;31.25;22.00;;;;;6.38;74.41;103269.22;5038014;28;45365;-56
2021/12/18 08:26:57;;;;;;;;;40.75;24.75;;;;;6.39;74.26;103276.22;5038165;28;45421;-56
2021/12/18 08:29:22;;;;;;;;;33.50;23.25;;;;;6.42;73.95;103277.91;5037803;28;46145;-55
2021/12/18 08:31:47;;;;;;;;;35.50;26.25;;;;;6.42;73.99;103281.41;5037908;28;45397;-54
2021/12/18 08:34:13;;;;;;;;;36.75;27.00;;;;;6.45;74.11;103283.09;5038096;28;45789;-56
2021/12/18 08:36:39;;;;;;;;;33.50;23.25;;;;;6.34;73.53;103272.03;5037781;28;45317;-56
2021/12/18 08:39:04;;;;;;;;;27.00;21.75;;;;;6.47;73.67;103284.72;5037913;28;46211;-56
2021/12/18 08:41:30;;;;;;;;;34.25;24.50;;;;;6.50;73.06;103281.97;5035779;28;45374;-55
2021/12/18 08:43:55;;;;;;;;;35.00;22.75;;;;;6.54;73.21;103284.53;5037654;28;45429;-56
2021/12/18 08:46:21;;;;;;;;;29.25;26.00;;;;;6.56;73.58;103285.31;5037652;28;45252;-56
2021/12/18 08:48:46;;;;;;;;;41.75;26.00;;;;;6.58;73.29;103287.00;5037275;28;47021;-55
2021/12/18 08:51:12;;;;;;;;;28.00;23.50;;;;;6.63;73.23;103285.03;5037353;28;45411;-57
2021/12/18 08:53:37;;;;;;;;;28.50;20.50;;;;;6.66;72.58;103284.91;5037429;28;45214;-55
2021/12/18 08:56:03;;;;;;;;;33.00;26.50;;;;;6.59;72.93;103274.63;5037513;28;45219;-55
2021/12/18 08:58:28;;;;;;;;;33.00;24.75;;;;;6.74;72.72;103284.59;5036900;28;46581;-55
2021/12/18 09:00:54;;;;;;;;;33.25;28.00;;;;;6.79;72.58;103287.09;5037232;28;45286;-55
2021/12/18 09:03:19;;;;;;;;;35.25;28.00;;;;;6.83;72.01;103272.81;5037554;28;45377;-58
2021/12/18 09:05:45;;;;;;;;;40.75;29.00;;;;;6.92;72.21;103277.75;5037266;28;45473;-58
2021/12/18 09:08:10;;;;;;;;;30.25;22.00;;;;;6.98;72.02;103266.91;5037361;28;46366;-56
2021/12/18 09:10:36;;;;;;;;;29.75;23.25;;;;;7.10;72.04;103274.34;5037031;28;45192;-55
2021/12/18 09:13:02;;;;;;;;;35.00;27.25;;;;;7.58;70.65;103259.97;5037034;28;45443;-55
2021/12/18 09:15:27;;;;;;;;;36.75;27.75;;;;;8.57;67.51;103283.88;5021894;28;45601;-56
2021/12/18 09:17:53;;;;;;;;;31.50;24.75;;;;;8.85;67.00;103272.81;5036846;28;46851;-56
2021/12/18 09:20:18;;;;;;;;;33.50;28.75;;;;;9.15;66.34;103274.91;5036985;28;45342;-56
2021/12/18 09:22:44;;;;;;;;;30.50;27.25;;;;;9.53;66.35;103264.16;5036827;28;45385;-56
2021/12/18 09:25:10;;;;;;;;;29.25;22.00;;;;;9.91;63.69;103267.50;5037770;28;45333;-56
2021/12/18 09:27:36;;;;;;;;;29.00;24.00;;;;;10.38;62.88;103251.69;5037524;28;46175;-58
2021/12/18 09:30:04;;;;;;;;;31.75;26.50;;;;;10.87;62.94;103248.94;5037100;28;45598;-55
2021/12/18 09:32:30;;;;;;;;;28.00;22.67;;;;;11.40;64.34;103252.09;5036811;28;45480;-57
2021/12/18 09:34:56;;;;;;;;;20.33;18.00;;;;;11.89;59.84;103235.84;5036981;28;45560;-55
2021/12/18 09:37:21;;;;;;;;;27.67;18.00;;;;;12.68;60.95;103224.59;5036713;28;45925;-54
2021/12/18 09:39:47;;;;;;;;;28.67;24.67;;;;;13.76;57.16;103243.19;5036671;28;45587;-56
2021/12/18 09:42:12;;;;;;;;;23.33;21.67;;;;;14.86;55.00;103224.56;5036739;28;45640;-54
2021/12/18 09:44:38;;;;;;;;;26.67;20.00;;;;;15.98;51.99;103234.78;5036275;28;45440;-54
2021/12/18 09:47:04;;;;;;;;;31.67;22.33;;;;;16.82;47.80;103235.19;5035909;28;46120;-54
2021/12/18 09:49:31;;;;;;;;;31.00;21.00;;;;;17.48;48.95;103232.31;5036617;28;45393;-54
2021/12/18 09:51:57;;;;;;;;;30.00;22.00;;;;;18.19;45.65;103228.75;5036765;28;45317;-57
2021/12/18 09:54:23;;;;;;;;;25.67;23.00;;;;;18.56;43.71;103227.28;5017906;28;45521;-55
2021/12/18 09:56:49;;;;;;;;;23.33;18.33;;;;;19.11;44.18;103228.50;5016102;28;47182;-54
2021/12/18 09:59:15;;;;;;;;;26.33;21.33;;;;;19.47;43.57;103207.16;5016112;28;45377;-55
2021/12/18 10:01:40;;;;;;;;;25.67;23.00;;;;;19.94;40.09;103218.84;5016215;28;45201;-56
2021/12/18 10:04:24;;;;;;;;;25.67;23.00;;;;;20.49;40.61;103217.19;5015229;28;45596;-54
2021/12/18 10:06:50;;;;;;;;;23.33;19.67;;;;;20.78;40.37;103216.97;5016221;28;48001;-54
2021/12/18 10:09:18;;;;;;;;;24.00;20.67;;;;;21.14;36.87;103210.53;5015981;28;45471;-54
2021/12/18 10:11:48;;;;;;;;;21.67;21.67;;;;;21.43;37.19;103206.72;5016335;28;45321;-52
2021/12/18 10:14:15;;;;;;;;;29.67;25.00;;;;;21.65;34.92;103210.75;5016389;28;45243;-57
2021/12/18 10:16:44;;;;;;;;;23.00;20.00;;;;;22.00;37.32;103208.94;5015810;28;46248;-56
2021/12/18 10:19:24;;;;;;;;;30.33;23.33;;;;;21.89;36.40;103213.59;5016005;28;45327;-55
2021/12/18 10:21:59;;;;;;;;;24.33;21.67;;;;;21.52;38.07;103218.47;5016099;28;45339;-54
2021/12/18 10:24:25;;;;;;;;;25.67;23.33;;;;;21.25;36.76;103205.91;5016366;28;45181;-52
2021/12/18 10:26:50;;;;;;;;;26.33;22.67;;;;;20.97;37.96;103199.72;5015935;28;45420;-54
2021/12/18 10:29:35;;;;;;;;;22.33;19.67;;;;;21.08;37.17;103207.63;5015848;28;45468;-57
2021/12/18 10:32:18;;;;;;;;;22.67;22.00;;;;;20.22;37.57;103205.34;5016259;28;45394;-55
2021/12/18 10:34:52;;;;;;;;;17.00;15.00;;;;;20.42;36.53;103184.44;5016122;28;45232;-55
2021/12/18 10:37:35;;;;;;;;;27.00;23.67;;;;;19.50;39.66;103209.56;5015794;28;46393;-55
2021/12/18 10:40:08;;;;;;;;;24.67;19.33;;;;;18.39;39.58;103207.25;5015712;28;45527;-54
2021/12/18 10:42:42;;;;;;;;;23.00;21.33;;;;;17.77;43.28;103200.22;5015918;28;45292;-55
2021/12/18 10:45:15;;;;;;;;;24.00;20.67;;;;;18.03;40.95;103200.59;5016272;28;45619;-55
2021/12/18 10:48:08;;;;;;;;;25.67;19.67;;;;;18.61;42.57;103196.22;5015703;28;45325;-56
2021/12/18 10:50:48;;;;;;;;;29.33;22.33;;;;;18.51;39.69;103192.69;5015840;28;45319;-52
2021/12/18 10:53:27;;;;;;;;;19.67;18.00;;;;;18.64;39.89;103190.56;5015807;28;45334;-55
2021/12/18 10:55:56;;;;;;;;;21.33;16.00;;;;;18.96;39.48;103186.75;5015930;28;45426;-51
2021/12/18 10:58:36;;;;;;;;;23.33;19.00;;;;;19.01;38.47;103191.75;5018451;28;45284;-55
2021/12/18 11:01:13;;;;;;;;;23.00;20.00;;;;;19.33;41.76;103188.72;5019119;28;45375;-55
2021/12/18 11:03:44;;;;;;;;;31.33;22.33;;;;;19.40;39.23;103181.75;5019269;28;45343;-55
2021/12/18 11:06:17;;;;;;;;;27.67;21.67;;;;;19.69;37.65;103171.75;5019431;28;45598;-55
2021/12/18 11:08:52;;;;;;;;;22.33;18.67;;;;;20.65;37.30;103177.63;5019054;28;45463;-54
2021/12/18 11:13:58;;;;;;;;;23.33;18.33;;;;;21.37;34.69;103170.31;5019031;28;45390;-55
2021/12/18 11:16:25;;;;;;;;;27.33;22.00;;;;;21.53;33.68;103163.28;5018906;28;45529;-54
2021/12/18 11:18:53;;;;;;;;;23.67;20.33;;;;;21.63;34.09;103164.88;5018883;28;46287;-56
2021/12/18 11:21:19;;;;;;;;;19.67;17.00;;;;;21.85;33.54;103168.03;5018696;28;45461;-57
2021/12/18 11:23:54;;;;;;;;;24.33;22.67;;;;;22.04;33.72;103175.91;5018924;28;45390;-55
2021/12/18 11:26:22;;;;;;;;;23.33;21.00;;;;;22.26;32.32;103168.22;5018922;28;45358;-54
2021/12/18 11:28:51;;;;;;;;;23.67;19.67;;;;;22.40;32.96;103167.56;5018310;28;46045;-56
2021/12/18 11:31:18;;;;;;;;;12.00;12.00;;;;;22.10;35.83;103169.81;5018863;28;45263;-53
2021/12/18 11:33:44;;;;;;;;;26.50;21.25;;;;;21.95;33.87;103168.72;5019510;28;45316;-54
2021/12/18 11:36:09;;;;;;;;;22.25;18.50;;;;;22.08;33.07;103161.03;5018561;28;45471;-53
2021/12/18 11:38:39;;;;;;;;;29.00;23.67;;;;;22.12;32.58;103164.22;5019231;28;45320;-56
2021/12/18 11:41:05;;;;;;;;;24.75;20.50;;;;;22.26;32.95;103160.09;5019902;28;45414;-55
2021/12/18 11:43:38;;;;;;;;;21.50;18.00;;;;;22.30;33.55;103150.59;5018412;28;45397;-53
2021/12/18 11:46:27;;;;;;;;;21.00;20.50;;;;;22.28;33.20;103147.19;5018788;28;45306;-54
2021/12/18 11:48:59;;;;;;;;;22.25;21.50;;;;;22.35;32.44;103142.81;5017390;28;46286;-54
2021/12/18 11:51:25;;;;;;;;;22.25;19.00;;;;;22.14;33.30;103140.56;5017844;28;45363;-55
2021/12/18 11:53:51;;;;;;;;;19.00;12.00;;;;;21.64;33.26;103127.81;5018642;28;45287;-54
2021/12/18 11:56:16;;;;;;;;;22.25;21.25;;;;;21.12;33.76;103135.94;5018973;28;45212;-53
2021/12/18 11:58:44;;;;;;;;;20.75;20.25;;;;;20.62;34.51;103136.53;5000471;28;46027;-54
2021/12/18 12:01:25;;;;;;;;;25.75;21.00;;;;;20.07;35.81;103139.31;5018234;28;45417;-55
2021/12/18 12:03:50;;;;;;;;;28.75;22.75;;;;;19.76;35.71;103133.31;5018499;28;45366;-54
2021/12/18 12:06:26;;;;;;;;;26.50;23.00;;;;;19.41;36.66;103134.84;5018441;28;45179;-53